sensor_id;sensor_type;location;lat;lon;timestamp;P1;durP1;ratioP1;P2;durP2;ratioP2
34242;SDS011;20504;43.214;27.920;2022-09-01T07:19:41;15.55;;;7.60;;
34242;SDS011;20504;43.214;27.920;2022-09-01T07:22:51;21.60;;;8.43;;
34242;SDS011;20504;43.214;27.920;2022-09-01T07:25:19;17.60;;;10.93;;
34242;SDS011;20504;43.214;27.920;2022-09-01T07:31:36;10.00;;;7.75;;
34242;SDS011;20504;43.214;27.920;2022-09-01T07:34:16;14.20;;;7.78;;
34242;SDS011;20504;43.214;27.920;2022-09-01T07:37:00;15.80;;;7.47;;
34242;SDS011;20504;43.214;27.920;2022-09-01T07:40:40;11.48;;;6.97;;
34242;SDS011;20504;43.214;27.920;2022-09-01T07:43:28;13.77;;;8.00;;
34242;SDS011;20504;43.214;27.920;2022-09-01T07:46:21;17.50;;;8.25;;
34242;SDS011;20504;43.214;27.920;2022-09-01T07:48:54;12.80;;;7.10;;
34242;SDS011;20504;43.214;27.920;2022-09-01T07:51:23;13.02;;;8.25;;
34242;SDS011;20504;43.214;27.920;2022-09-01T07:53:51;12.77;;;8.02;;
34242;SDS011;20504;43.214;27.920;2022-09-01T07:56:26;27.60;;;9.88;;
34242;SDS011;20504;43.214;27.920;2022-09-01T07:59:05;14.77;;;7.85;;
34242;SDS011;20504;43.214;27.920;2022-09-01T08:01:36;13.93;;;9.20;;
34242;SDS011;20504;43.214;27.920;2022-09-01T08:04:03;15.73;;;8.13;;
34242;SDS011;20504;43.214;27.920;2022-09-01T08:06:38;12.82;;;7.50;;
34242;SDS011;20504;43.214;27.920;2022-09-01T08:09:05;11.73;;;7.40;;
34242;SDS011;20504;43.214;27.920;2022-09-01T08:11:37;15.43;;;7.68;;
34242;SDS011;20504;43.214;27.920;2022-09-01T08:16:41;18.30;;;6.95;;
34242;SDS011;20504;43.214;27.920;2022-09-01T08:19:38;12.10;;;7.50;;
34242;SDS011;20504;43.214;27.920;2022-09-01T08:22:04;13.37;;;7.47;;
34242;SDS011;20504;43.214;27.920;2022-09-01T08:24:30;17.00;;;8.02;;
34242;SDS011;20504;43.214;27.920;2022-09-01T08:26:56;13.27;;;7.55;;
34242;SDS011;20504;43.214;27.920;2022-09-01T08:29:34;16.37;;;6.87;;
34242;SDS011;20504;43.214;27.920;2022-09-01T08:32:21;45.15;;;11.20;;
34242;SDS011;20504;43.214;27.920;2022-09-01T08:34:48;27.02;;;9.38;;
34242;SDS011;20504;43.214;27.920;2022-09-01T08:37:19;17.23;;;7.45;;
34242;SDS011;20504;43.214;27.920;2022-09-01T08:40:20;16.92;;;7.65;;
34242;SDS011;20504;43.214;27.920;2022-09-01T08:46:13;10.63;;;7.45;;
34242;SDS011;20504;43.214;27.920;2022-09-01T08:52:36;8.57;;;7.28;;
34242;SDS011;20504;43.214;27.920;2022-09-01T08:55:18;15.95;;;9.02;;
34242;SDS011;20504;43.214;27.920;2022-09-01T09:00:46;14.35;;;7.70;;
34242;SDS011;20504;43.214;27.920;2022-09-01T09:21:55;14.18;;;8.80;;
34242;SDS011;20504;43.214;27.920;2022-09-01T09:27:23;14.02;;;7.10;;
34242;SDS011;20504;43.214;27.920;2022-09-01T09:32:44;13.80;;;7.97;;
34242;SDS011;20504;43.214;27.920;2022-09-01T09:38:15;14.27;;;8.10;;
34242;SDS011;20504;43.214;27.920;2022-09-01T09:43:35;15.48;;;7.70;;
34242;SDS011;20504;43.214;27.920;2022-09-01T09:49:14;14.68;;;7.63;;
34242;SDS011;20504;43.214;27.920;2022-09-01T09:54:40;15.73;;;8.48;;
34242;SDS011;20504;43.214;27.920;2022-09-01T09:57:28;12.70;;;7.35;;
34242;SDS011;20504;43.214;27.920;2022-09-01T10:07:57;25.80;;;8.38;;
34242;SDS011;20504;43.214;27.920;2022-09-01T10:10:36;16.80;;;8.23;;
34242;SDS011;20504;43.214;27.920;2022-09-01T10:13:19;14.77;;;7.18;;
34242;SDS011;20504;43.214;27.920;2022-09-01T10:15:52;15.82;;;7.88;;
34242;SDS011;20504;43.214;27.920;2022-09-01T10:18:37;12.38;;;7.53;;
34242;SDS011;20504;43.214;27.920;2022-09-01T10:21:22;12.40;;;7.43;;
34242;SDS011;20504;43.214;27.920;2022-09-01T10:23:54;16.40;;;7.07;;
34242;SDS011;20504;43.214;27.920;2022-09-01T10:28:58;14.88;;;7.65;;
34242;SDS011;20504;43.214;27.920;2022-09-01T10:31:31;19.05;;;8.25;;
34242;SDS011;20504;43.214;27.920;2022-09-01T10:33:58;19.42;;;8.15;;
34242;SDS011;20504;43.214;27.920;2022-09-01T10:36:28;14.70;;;7.70;;
34242;SDS011;20504;43.214;27.920;2022-09-01T10:38:56;13.50;;;7.25;;
34242;SDS011;20504;43.214;27.920;2022-09-01T10:44:30;13.48;;;7.30;;
34242;SDS011;20504;43.214;27.920;2022-09-01T10:51:54;14.53;;;7.57;;
34242;SDS011;20504;43.214;27.920;2022-09-01T10:57:09;14.90;;;7.13;;
34242;SDS011;20504;43.214;27.920;2022-09-01T10:59:45;15.32;;;7.72;;
34242;SDS011;20504;43.214;27.920;2022-09-01T11:02:15;14.35;;;7.47;;
34242;SDS011;20504;43.214;27.920;2022-09-01T11:10:06;13.32;;;7.68;;
34242;SDS011;20504;43.214;27.920;2022-09-01T11:20:24;18.48;;;7.97;;
34242;SDS011;20504;43.214;27.920;2022-09-01T11:23:01;13.30;;;7.78;;
34242;SDS011;20504;43.214;27.920;2022-09-01T11:33:43;15.35;;;7.43;;
34242;SDS011;20504;43.214;27.920;2022-09-01T11:42:20;20.60;;;7.65;;
34242;SDS011;20504;43.214;27.920;2022-09-01T11:45:03;16.42;;;7.90;;
34242;SDS011;20504;43.214;27.920;2022-09-01T11:47:48;16.38;;;8.77;;
34242;SDS011;20504;43.214;27.920;2022-09-01T11:50:40;16.30;;;9.25;;
34242;SDS011;20504;43.214;27.920;2022-09-01T11:53:13;13.73;;;8.60;;
34242;SDS011;20504;43.214;27.920;2022-09-01T11:55:49;17.40;;;8.40;;
34242;SDS011;20504;43.214;27.920;2022-09-01T12:01:13;15.48;;;8.40;;
34242;SDS011;20504;43.214;27.920;2022-09-01T12:04:23;21.85;;;9.05;;
34242;SDS011;20504;43.214;27.920;2022-09-01T12:06:59;20.92;;;9.20;;
34242;SDS011;20504;43.214;27.920;2022-09-01T12:09:37;23.92;;;9.93;;
34242;SDS011;20504;43.214;27.920;2022-09-01T12:12:04;15.95;;;9.25;;
34242;SDS011;20504;43.214;27.920;2022-09-01T12:14:31;18.63;;;9.07;;
34242;SDS011;20504;43.214;27.920;2022-09-01T12:19:30;16.50;;;9.68;;
34242;SDS011;20504;43.214;27.920;2022-09-01T12:21:59;18.75;;;9.73;;
34242;SDS011;20504;43.214;27.920;2022-09-01T12:24:27;19.88;;;8.88;;
34242;SDS011;20504;43.214;27.920;2022-09-01T12:27:02;25.45;;;9.25;;
34242;SDS011;20504;43.214;27.920;2022-09-01T12:29:28;19.77;;;9.70;;
34242;SDS011;20504;43.214;27.920;2022-09-01T12:31:56;21.35;;;9.70;;
34242;SDS011;20504;43.214;27.920;2022-09-01T12:39:46;18.90;;;8.30;;
34242;SDS011;20504;43.214;27.920;2022-09-01T12:44:58;14.80;;;8.35;;
34242;SDS011;20504;43.214;27.920;2022-09-01T12:50:05;16.58;;;8.48;;
34242;SDS011;20504;43.214;27.920;2022-09-01T12:52:54;20.15;;;8.90;;
34242;SDS011;20504;43.214;27.920;2022-09-01T12:55:30;16.42;;;7.35;;
34242;SDS011;20504;43.214;27.920;2022-09-01T12:57:59;11.02;;;7.63;;
34242;SDS011;20504;43.214;27.920;2022-09-01T13:03:30;16.27;;;7.95;;
34242;SDS011;20504;43.214;27.920;2022-09-01T13:05:57;13.32;;;8.75;;
34242;SDS011;20504;43.214;27.920;2022-09-01T13:08:26;19.08;;;9.10;;
34242;SDS011;20504;43.214;27.920;2022-09-01T13:11:05;18.65;;;9.35;;
34242;SDS011;20504;43.214;27.920;2022-09-01T13:13:33;15.43;;;8.15;;
34242;SDS011;20504;43.214;27.920;2022-09-01T13:18:43;14.00;;;7.93;;
34242;SDS011;20504;43.214;27.920;2022-09-01T13:21:09;17.70;;;8.93;;
34242;SDS011;20504;43.214;27.920;2022-09-01T13:23:38;20.08;;;9.18;;
34242;SDS011;20504;43.214;27.920;2022-09-01T13:26:04;20.42;;;9.15;;
34242;SDS011;20504;43.214;27.920;2022-09-01T13:28:32;21.25;;;9.00;;
34242;SDS011;20504;43.214;27.920;2022-09-01T13:31:00;16.65;;;8.73;;
34242;SDS011;20504;43.214;27.920;2022-09-01T13:33:34;20.83;;;9.55;;
34242;SDS011;20504;43.214;27.920;2022-09-01T13:36:04;17.02;;;8.73;;
34242;SDS011;20504;43.214;27.920;2022-09-01T13:38:31;12.70;;;7.97;;
34242;SDS011;20504;43.214;27.920;2022-09-01T13:41:17;14.05;;;8.52;;
34242;SDS011;20504;43.214;27.920;2022-09-01T13:43:47;19.10;;;8.68;;
34242;SDS011;20504;43.214;27.920;2022-09-01T13:46:23;14.38;;;9.32;;
34242;SDS011;20504;43.214;27.920;2022-09-01T13:48:49;15.82;;;9.48;;
34242;SDS011;20504;43.214;27.920;2022-09-01T13:51:27;22.65;;;10.00;;
34242;SDS011;20504;43.214;27.920;2022-09-01T13:54:37;16.88;;;8.27;;
34242;SDS011;20504;43.214;27.920;2022-09-01T13:57:26;17.02;;;9.50;;
34242;SDS011;20504;43.214;27.920;2022-09-01T13:59:51;14.20;;;8.33;;
34242;SDS011;20504;43.214;27.920;2022-09-01T14:02:17;17.10;;;9.38;;
34242;SDS011;20504;43.214;27.920;2022-09-01T14:04:43;17.33;;;9.13;;
34242;SDS011;20504;43.214;27.920;2022-09-01T14:09:52;19.85;;;9.30;;
34242;SDS011;20504;43.214;27.920;2022-09-01T14:12:23;20.00;;;9.75;;
34242;SDS011;20504;43.214;27.920;2022-09-01T14:14:51;19.17;;;9.43;;
34242;SDS011;20504;43.214;27.920;2022-09-01T14:17:17;16.38;;;8.15;;
34242;SDS011;20504;43.214;27.920;2022-09-01T14:19:47;15.27;;;8.80;;
34242;SDS011;20504;43.214;27.920;2022-09-01T14:29:59;16.63;;;8.98;;
34242;SDS011;20504;43.214;27.920;2022-09-01T14:32:44;16.67;;;8.38;;
34242;SDS011;20504;43.214;27.920;2022-09-01T14:35:11;13.07;;;8.05;;
34242;SDS011;20504;43.214;27.920;2022-09-01T14:37:38;14.95;;;8.27;;
34242;SDS011;20504;43.214;27.920;2022-09-01T14:40:13;13.80;;;8.00;;
34242;SDS011;20504;43.214;27.920;2022-09-01T14:42:42;13.35;;;7.43;;
34242;SDS011;20504;43.214;27.920;2022-09-01T14:45:13;13.95;;;8.18;;
34242;SDS011;20504;43.214;27.920;2022-09-01T14:47:48;13.00;;;7.47;;
34242;SDS011;20504;43.214;27.920;2022-09-01T14:50:17;13.90;;;8.07;;
34242;SDS011;20504;43.214;27.920;2022-09-01T14:52:45;15.07;;;8.43;;
34242;SDS011;20504;43.214;27.920;2022-09-01T14:55:11;17.23;;;9.40;;
34242;SDS011;20504;43.214;27.920;2022-09-01T14:57:38;19.23;;;8.65;;
34242;SDS011;20504;43.214;27.920;2022-09-01T15:00:06;13.00;;;7.78;;
34242;SDS011;20504;43.214;27.920;2022-09-01T15:02:37;12.80;;;7.85;;
34242;SDS011;20504;43.214;27.920;2022-09-01T15:05:03;17.05;;;7.28;;
34242;SDS011;20504;43.214;27.920;2022-09-01T15:07:34;18.13;;;7.25;;
34242;SDS011;20504;43.214;27.920;2022-09-01T15:10:10;19.02;;;8.35;;
34242;SDS011;20504;43.214;27.920;2022-09-01T15:13:03;15.02;;;7.75;;
34242;SDS011;20504;43.214;27.920;2022-09-01T15:16:02;13.52;;;8.20;;
34242;SDS011;20504;43.214;27.920;2022-09-01T15:18:33;11.93;;;7.85;;
34242;SDS011;20504;43.214;27.920;2022-09-01T15:21:24;17.30;;;7.82;;
34242;SDS011;20504;43.214;27.920;2022-09-01T15:24:01;13.73;;;8.25;;
34242;SDS011;20504;43.214;27.920;2022-09-01T15:29:14;13.88;;;7.45;;
34242;SDS011;20504;43.214;27.920;2022-09-01T15:31:43;12.70;;;7.85;;
34242;SDS011;20504;43.214;27.920;2022-09-01T15:34:14;18.60;;;9.48;;
34242;SDS011;20504;43.214;27.920;2022-09-01T15:36:42;12.90;;;8.23;;
34242;SDS011;20504;43.214;27.920;2022-09-01T15:39:22;18.30;;;8.70;;
34242;SDS011;20504;43.214;27.920;2022-09-01T15:41:49;14.45;;;8.23;;
34242;SDS011;20504;43.214;27.920;2022-09-01T15:44:16;14.87;;;8.43;;
34242;SDS011;20504;43.214;27.920;2022-09-01T15:46:44;18.52;;;10.23;;
34242;SDS011;20504;43.214;27.920;2022-09-01T15:49:10;14.82;;;8.93;;
34242;SDS011;20504;43.214;27.920;2022-09-01T15:51:48;16.48;;;8.70;;
34242;SDS011;20504;43.214;27.920;2022-09-01T15:54:18;17.27;;;8.07;;
34242;SDS011;20504;43.214;27.920;2022-09-01T15:56:51;17.30;;;7.82;;
34242;SDS011;20504;43.214;27.920;2022-09-01T15:59:25;15.00;;;7.47;;
34242;SDS011;20504;43.214;27.920;2022-09-01T16:01:51;15.18;;;8.27;;
34242;SDS011;20504;43.214;27.920;2022-09-01T16:06:43;15.73;;;9.38;;
34242;SDS011;20504;43.214;27.920;2022-09-01T16:15:23;12.80;;;7.47;;
34242;SDS011;20504;43.214;27.920;2022-09-01T16:21:21;13.90;;;8.50;;
34242;SDS011;20504;43.214;27.920;2022-09-01T16:26:28;12.38;;;7.40;;
34242;SDS011;20504;43.214;27.920;2022-09-01T16:32:29;17.70;;;7.57;;
34242;SDS011;20504;43.214;27.920;2022-09-01T16:35:18;9.80;;;7.40;;
34242;SDS011;20504;43.214;27.920;2022-09-01T16:57:19;14.70;;;7.70;;
34242;SDS011;20504;43.214;27.920;2022-09-01T17:00:11;12.55;;;6.47;;
34242;SDS011;20504;43.214;27.920;2022-09-01T17:03:03;14.98;;;8.20;;
34242;SDS011;20504;43.214;27.920;2022-09-01T17:05:56;16.73;;;7.50;;
34242;SDS011;20504;43.214;27.920;2022-09-01T17:09:17;13.38;;;7.45;;
34242;SDS011;20504;43.214;27.920;2022-09-01T17:18:02;15.43;;;7.40;;
34242;SDS011;20504;43.214;27.920;2022-09-01T17:20:47;15.93;;;6.55;;
34242;SDS011;20504;43.214;27.920;2022-09-01T17:23:19;11.68;;;6.82;;
34242;SDS011;20504;43.214;27.920;2022-09-01T17:25:54;7.35;;;6.50;;
34242;SDS011;20504;43.214;27.920;2022-09-01T17:28:34;11.80;;;6.53;;
34242;SDS011;20504;43.214;27.920;2022-09-01T17:31:20;13.48;;;6.88;;
34242;SDS011;20504;43.214;27.920;2022-09-01T17:37:12;20.80;;;6.45;;
34242;SDS011;20504;43.214;27.920;2022-09-01T17:56:04;10.63;;;5.65;;
34242;SDS011;20504;43.214;27.920;2022-09-01T18:16:27;13.88;;;5.90;;
34242;SDS011;20504;43.214;27.920;2022-09-01T18:19:03;11.05;;;6.38;;
34242;SDS011;20504;43.214;27.920;2022-09-01T18:21:51;7.93;;;5.90;;
34242;SDS011;20504;43.214;27.920;2022-09-01T18:24:58;20.75;;;5.88;;
34242;SDS011;20504;43.214;27.920;2022-09-01T18:27:38;10.70;;;5.72;;
34242;SDS011;20504;43.214;27.920;2022-09-01T18:30:13;9.30;;;5.75;;
34242;SDS011;20504;43.214;27.920;2022-09-01T18:33:07;8.57;;;5.28;;
34242;SDS011;20504;43.214;27.920;2022-09-01T18:35:52;11.65;;;6.35;;
34242;SDS011;20504;43.214;27.920;2022-09-01T18:38:43;9.25;;;5.07;;
34242;SDS011;20504;43.214;27.920;2022-09-01T18:41:31;10.15;;;5.38;;
34242;SDS011;20504;43.214;27.920;2022-09-01T18:53:50;13.60;;;6.80;;
34242;SDS011;20504;43.214;27.920;2022-09-01T19:03:04;9.30;;;5.85;;
34242;SDS011;20504;43.214;27.920;2022-09-01T19:08:58;14.85;;;6.10;;
34242;SDS011;20504;43.214;27.920;2022-09-01T19:20:23;10.27;;;5.93;;
34242;SDS011;20504;43.214;27.920;2022-09-01T19:23:01;10.55;;;5.75;;
34242;SDS011;20504;43.214;27.920;2022-09-01T19:25:44;8.45;;;5.85;;
34242;SDS011;20504;43.214;27.920;2022-09-01T19:31:28;9.68;;;5.28;;
34242;SDS011;20504;43.214;27.920;2022-09-01T19:34:01;10.10;;;5.60;;
34242;SDS011;20504;43.214;27.920;2022-09-01T19:39:18;12.82;;;5.93;;
34242;SDS011;20504;43.214;27.920;2022-09-01T19:41:51;10.55;;;5.32;;
34242;SDS011;20504;43.214;27.920;2022-09-01T19:47:17;14.02;;;6.10;;
34242;SDS011;20504;43.214;27.920;2022-09-01T19:58:51;7.45;;;5.20;;
34242;SDS011;20504;43.214;27.920;2022-09-01T20:01:32;7.43;;;5.10;;
34242;SDS011;20504;43.214;27.920;2022-09-01T20:07:56;15.65;;;7.35;;
34242;SDS011;20504;43.214;27.920;2022-09-01T20:13:34;8.18;;;5.45;;
34242;SDS011;20504;43.214;27.920;2022-09-01T20:22:59;8.85;;;5.75;;
34242;SDS011;20504;43.214;27.920;2022-09-01T20:35:03;11.60;;;5.95;;
34242;SDS011;20504;43.214;27.920;2022-09-01T20:38:05;10.27;;;5.93;;
34242;SDS011;20504;43.214;27.920;2022-09-01T20:47:27;8.07;;;5.32;;
34242;SDS011;20504;43.214;27.920;2022-09-01T20:49:56;6.55;;;4.65;;
34242;SDS011;20504;43.214;27.920;2022-09-01T20:55:03;8.02;;;4.75;;
34242;SDS011;20504;43.214;27.920;2022-09-01T21:00:38;8.10;;;5.32;;
34242;SDS011;20504;43.214;27.920;2022-09-01T21:07:24;9.07;;;5.63;;
34242;SDS011;20504;43.214;27.920;2022-09-01T21:10:25;9.75;;;5.60;;
34242;SDS011;20504;43.214;27.920;2022-09-01T21:20:14;8.80;;;5.93;;
34242;SDS011;20504;43.214;27.920;2022-09-01T21:25:59;8.40;;;5.80;;
34242;SDS011;20504;43.214;27.920;2022-09-01T21:31:05;10.10;;;6.20;;
34242;SDS011;20504;43.214;27.920;2022-09-01T21:34:24;9.32;;;6.13;;
34242;SDS011;20504;43.214;27.920;2022-09-01T21:37:04;9.52;;;5.43;;
34242;SDS011;20504;43.214;27.920;2022-09-01T21:39:44;9.48;;;5.72;;
34242;SDS011;20504;43.214;27.920;2022-09-01T21:42:21;9.02;;;6.00;;
34242;SDS011;20504;43.214;27.920;2022-09-01T21:45:17;7.40;;;5.75;;
34242;SDS011;20504;43.214;27.920;2022-09-01T21:51:19;11.50;;;5.60;;
34242;SDS011;20504;43.214;27.920;2022-09-01T21:53:49;9.10;;;6.03;;
34242;SDS011;20504;43.214;27.920;2022-09-01T21:56:21;9.27;;;6.40;;
34242;SDS011;20504;43.214;27.920;2022-09-01T22:33:25;10.95;;;5.95;;
34242;SDS011;20504;43.214;27.920;2022-09-01T22:39:00;9.02;;;5.88;;
34242;SDS011;20504;43.214;27.920;2022-09-01T22:41:30;10.43;;;6.43;;
34242;SDS011;20504;43.214;27.920;2022-09-01T22:44:08;10.05;;;6.00;;
34242;SDS011;20504;43.214;27.920;2022-09-01T22:46:36;7.28;;;5.68;;
34242;SDS011;20504;43.214;27.920;2022-09-01T22:49:25;6.70;;;5.50;;
34242;SDS011;20504;43.214;27.920;2022-09-01T22:52:07;10.57;;;6.43;;
34242;SDS011;20504;43.214;27.920;2022-09-01T22:55:08;8.90;;;5.72;;
34242;SDS011;20504;43.214;27.920;2022-09-01T23:06:50;10.57;;;6.63;;
34242;SDS011;20504;43.214;27.920;2022-09-01T23:09:18;7.63;;;6.35;;
34242;SDS011;20504;43.214;27.920;2022-09-01T23:14:49;12.43;;;7.15;;
34242;SDS011;20504;43.214;27.920;2022-09-01T23:17:56;14.18;;;7.05;;
34242;SDS011;20504;43.214;27.920;2022-09-01T23:20:31;8.20;;;6.28;;
34242;SDS011;20504;43.214;27.920;2022-09-01T23:23:21;6.68;;;5.70;;
34242;SDS011;20504;43.214;27.920;2022-09-01T23:25:50;8.93;;;6.53;;
34242;SDS011;20504;43.214;27.920;2022-09-01T23:28:40;12.25;;;6.43;;
34242;SDS011;20504;43.214;27.920;2022-09-01T23:33:46;10.00;;;7.00;;
34242;SDS011;20504;43.214;27.920;2022-09-01T23:36:24;9.95;;;6.72;;
34242;SDS011;20504;43.214;27.920;2022-09-01T23:40:02;8.80;;;6.35;;
34242;SDS011;20504;43.214;27.920;2022-09-01T23:43:09;12.82;;;7.15;;
34242;SDS011;20504;43.214;27.920;2022-09-01T23:46:18;11.88;;;6.30;;
34242;SDS011;20504;43.214;27.920;2022-09-01T23:51:48;13.15;;;6.40;;
34242;SDS011;20504;43.214;27.920;2022-09-01T23:57:01;9.48;;;6.72;;
34242;SDS011;20504;43.214;27.920;2022-09-01T23:59:45;14.48;;;6.82;;
